createdAt,value
2023-04-26T12:51:07.992Z,11.40
2023-04-26T12:56:38.581Z,11.70
2023-04-26T13:01:42.449Z,11.90
2023-04-26T13:07:39.284Z,12.30
2023-04-26T13:12:43.445Z,12.60
2023-04-26T13:17:47.587Z,12.80
2023-04-26T13:22:53.011Z,12.70
2023-04-26T13:27:57.096Z,12.70
2023-04-26T13:33:01.438Z,12.70
2023-04-26T13:38:06.873Z,12.70
2023-04-26T13:43:11.003Z,12.70
2023-04-26T13:48:15.418Z,12.70
2023-04-26T13:53:21.541Z,12.80
2023-04-26T13:58:25.643Z,13.00
2023-04-26T14:03:30.054Z,13.20
2023-04-26T14:08:36.301Z,13.30
2023-04-26T14:13:40.883Z,13.50
2023-04-26T14:18:48.747Z,13.50
2023-04-26T14:23:54.179Z,13.40
2023-04-26T14:28:58.295Z,13.20
2023-04-26T14:34:02.398Z,13.10
2023-04-26T14:39:07.921Z,13.00
2023-04-26T14:44:11.995Z,12.80
2023-04-26T14:49:16.077Z,12.70
2023-04-26T14:54:21.492Z,12.60
2023-04-26T14:59:25.636Z,12.50
2023-04-26T15:04:30.022Z,12.50
2023-04-26T15:09:35.781Z,12.50
2023-04-26T15:14:39.860Z,12.50
2023-04-26T15:19:43.938Z,12.50
2023-04-26T15:24:50.987Z,12.60
2023-04-26T15:29:56.575Z,12.70
2023-04-26T15:35:00.696Z,12.80
2023-04-26T15:40:10.526Z,13.00
2023-04-26T15:45:15.026Z,13.10
2023-04-26T15:50:19.027Z,13.10
2023-04-26T15:55:24.492Z,13.10
2023-04-26T16:00:28.683Z,13.00
2023-04-26T16:05:32.773Z,13.00
2023-04-26T16:10:38.440Z,12.90
2023-04-26T16:15:42.707Z,12.80
2023-04-26T16:20:46.820Z,12.80
2023-04-26T16:25:52.419Z,12.70
2023-04-26T16:30:56.974Z,12.60
2023-04-26T16:36:01.061Z,12.60
2023-04-26T16:41:07.245Z,12.60
2023-04-26T16:46:11.713Z,12.60
2023-04-26T16:51:15.851Z,12.50
2023-04-26T16:56:21.326Z,12.40
2023-04-26T17:01:25.897Z,12.40
2023-04-26T17:06:30.094Z,12.30
2023-04-26T17:11:37.417Z,12.20
2023-04-26T17:16:41.663Z,12.20
2023-04-26T17:21:45.900Z,12.20
2023-04-26T17:26:51.737Z,12.10
2023-04-26T17:31:55.909Z,12.00
2023-04-26T17:36:59.991Z,12.00
2023-04-26T17:42:05.583Z,11.90
2023-04-26T17:47:09.648Z,11.90
2023-04-26T17:52:13.735Z,11.80
2023-04-26T17:57:20.325Z,11.80
2023-04-26T18:02:24.757Z,11.70
2023-04-26T18:07:28.990Z,11.60
2023-04-26T18:12:34.360Z,11.60
2023-04-26T18:17:38.445Z,11.50
2023-04-26T18:22:42.634Z,11.50
2023-04-26T18:27:48.150Z,11.40
2023-04-26T18:32:53.435Z,11.40
2023-04-26T18:37:57.579Z,11.30
2023-04-26T18:43:03.033Z,11.20
2023-04-26T18:48:07.820Z,11.20
2023-04-26T18:53:11.955Z,11.10
2023-04-26T18:58:17.709Z,11.00
2023-04-26T19:03:22.207Z,11.00
2023-04-26T19:08:26.856Z,10.90
2023-04-26T19:13:32.984Z,10.80
2023-04-26T19:18:37.319Z,10.80
2023-04-26T19:23:41.331Z,10.70
2023-04-26T19:28:46.796Z,10.70
2023-04-26T19:33:50.805Z,10.70
2023-04-26T19:38:54.944Z,10.60
2023-04-26T19:44:00.452Z,10.50
2023-04-26T19:49:04.503Z,10.50
2023-04-26T19:54:08.561Z,10.50
2023-04-26T19:59:14.941Z,10.40
2023-04-26T20:04:19.147Z,10.40
2023-04-26T20:09:23.503Z,10.30
2023-04-26T20:14:30.354Z,10.30
2023-04-26T20:19:34.399Z,10.20
2023-04-26T20:24:38.436Z,10.20
2023-04-26T20:29:44.054Z,10.10
2023-04-26T20:34:48.164Z,10.10
2023-04-26T20:39:52.196Z,10.00
2023-04-26T20:44:59.270Z,10.00
2023-04-26T20:50:05.426Z,9.90
2023-04-26T20:55:10.054Z,9.80
2023-04-26T21:00:16.347Z,9.70
2023-04-26T21:05:20.790Z,9.70
2023-04-26T21:10:24.788Z,9.60
2023-04-26T21:15:30.279Z,9.50
2023-04-26T21:20:35.041Z,9.50
2023-04-26T21:25:39.110Z,9.40
2023-04-26T21:30:44.503Z,9.30
2023-04-26T21:35:48.544Z,9.20
2023-04-26T21:40:52.608Z,9.20
2023-04-26T21:45:58.986Z,9.10
2023-04-26T21:51:03.064Z,9.10
2023-04-26T21:56:07.811Z,9.00
2023-04-26T22:01:15.925Z,9.00
2023-04-26T22:06:20.417Z,8.90
2023-04-26T22:11:24.404Z,8.90
2023-04-26T22:16:29.825Z,8.80
2023-04-26T22:21:33.955Z,8.80
2023-04-26T22:26:37.956Z,8.70
2023-04-26T22:31:43.310Z,8.70
2023-04-26T22:36:47.635Z,8.60
2023-04-26T22:41:51.609Z,8.50
2023-04-26T22:46:59.222Z,8.50
2023-04-26T22:52:09.699Z,8.50
2023-04-26T22:57:21.174Z,8.50
2023-04-26T23:02:26.608Z,8.40
2023-04-26T23:07:30.703Z,8.30
2023-04-26T23:12:36.065Z,8.30
2023-04-26T23:17:41.856Z,8.20
2023-04-26T23:22:46.011Z,8.20
2023-04-26T23:27:49.960Z,8.20
2023-04-26T23:32:55.673Z,8.10
2023-04-26T23:37:59.726Z,8.10
2023-04-26T23:43:03.854Z,8.00
2023-04-26T23:48:09.322Z,8.00
2023-04-26T23:53:13.590Z,7.90
2023-04-26T23:58:17.555Z,7.90
